Terminal Aerodrome Forecast
Issued by NWS Charleston, WV

Current Version | Previous Version | Graphics & Text | Print | Product List | Glossary On
Versions: 1 2 3 4 5 6 7 8 9 10 11 12 13 14 15 16 17 18 19 20 21 22 23 24 25 26 27
000
FTUS41 KRLX 222335 AAC
TAFCRW
TAF AMD
KCRW 222335Z 2300/2324 22005KT P6SM VCTS OVC060CB
     FM230115 23006G20KT 1SM TSRA OVC040CB
     FM230215 24004KT 4SM SHRA VCTS OVC025CB
     FM230400 25004KT 6SM SHRA BR OVC015
     FM230800 30003KT 3SM BR OVC015
     FM231300 33003KT P6SM OVC010
     FM231500 33004KT P6SM BKN025
     FM231700 32004KT P6SM SCT045=

USA.gov is the U.S. government's official web portal to all federal, state and local government web resources and services.